• Join FlightAware (Why Join?)
  • Login
  • US Flag 
06:50PM EDT


 

Airport Tracker/Info


-or-


 

Live Flight TrackerFlight Track Log ✈ SKW6377 ✈ 21-Apr-2013 ✈ KDEN - KCPR

Flight Track Log - Related Links

Times and Time Zones

All times are in EDT time to prevent confusion due to time zone crossing. See the SKW6377 flight status page for this flight to view local times or setup timezone preferences in your user account.

Time Position Orientation Groundspeed Altitude Reporting Facility
EDT Latitude Longitude Course Direction KTS MPH feet Rate Location/Type
01:24PM 39.9500 -104.6833 346° North 218 251 7,700  Level Denver TRACON
01:25PM 40.0097 -104.6647 13° North 256 295 9,200 2,220 Climbing Denver Center
01:26PM 40.1659 -104.7714 347° North  Level FlightAware Approximate
01:26PM 40.0947 -104.6414 12° North 289 333 12,100  Level Denver Center
01:27PM 40.2720 -104.8032 347° North  Level FlightAware Approximate
01:27PM 40.1803 -104.6161 13° North 313 360 14,000  Level Denver Center
01:28PM 40.3777 -104.8370 346° North  Level FlightAware Approximate
01:28PM 40.2736 -104.6111 North 330 380 16,600  Level Denver Center
01:29PM 40.4832 -104.8722 346° North  Level FlightAware Approximate
01:29PM 40.3653 -104.6517 341° North 325 374 18,500  Level Denver Center
01:30PM 40.4497 -104.7103 332° Northwest 342 394 20,300 1,680 Climbing Denver Center
01:31PM 40.5392 -104.7744 331° Northwest 345 397 22,000 1,560 Climbing Denver Center
01:32PM 40.6278 -104.8331 333° Northwest 356 410 23,600 1,500 Climbing Denver Center
01:33PM 40.7203 -104.9003 331° Northwest 356 410 25,100 1,140 Climbing Denver Center
01:34PM 40.8083 -104.9569 334° Northwest 350 403 26,000 420 Climbing Denver Center
01:35PM 40.9033 -105.0222 333° Northwest 377 434 26,000  Level Denver Center
01:36PM 41.0014 -105.0908 332° Northwest 391 450 26,000  Level Denver Center
01:37PM 41.1097 -105.1672 332° Northwest 398 458 26,000  Level Denver Center
01:38PM 41.2044 -105.2344 332° Northwest 401 461 26,000  Level Denver Center
01:39PM 41.3103 -105.3069 333° Northwest 386 444 26,000  Level Denver Center
01:40PM 41.3992 -105.3697 332° Northwest 380 437 26,000  Level Denver Center
01:41PM 41.5022 -105.4433 332° Northwest 377 434 26,000  Level Denver Center
01:42PM 41.5906 -105.5058 332° Northwest 376 433 26,000  Level Denver Center
01:43PM 41.6933 -105.5786 332° Northwest 375 432 26,000  Level Denver Center
01:44PM 41.7781 -105.6400 332° Northwest 364 419 26,000  Level Denver Center
01:45PM 41.8653 -105.7031 332° Northwest 370 426 26,000  Level Denver Center
01:46PM 41.9697 -105.7761 333° Northwest 374 430 26,000  Level Denver Center
01:47PM 42.0592 -105.8408 332° Northwest 379 436 26,000 -1,500 Level Denver Center
01:48PM 42.1589 -105.9144 331° Northwest 370 426 23,000 -2,880 Descending Denver Center
01:49PM 42.2475 -105.9775 332° Northwest 373 429 20,100 -3,000 Descending Denver Center
01:51PM 42.3467 -106.0489 332° Northwest 366 421 16,800 -2,520 Descending Denver Center
01:52PM 42.4275 -106.1100 331° Northwest 359 413 15,000 -900 Descending Denver Center
01:53PM 42.5125 -106.1714 332° Northwest 335 386 15,000 -780 Level Denver Center
01:54PM 42.5839 -106.2233 332° Northwest 318 366 13,500 -1,620 Descending Denver Center
01:55PM 42.6653 -106.2811 332° Northwest 305 351 11,700 -1,680 Descending Denver Center
01:56PM 42.7328 -106.3339 330° Northwest 299 344 10,000 -1,140 Descending Denver Center
01:57PM 42.7950 -106.3822 330° Northwest 250 288 9,400 -960 Descending Denver Center
01:58PM 42.8467 -106.4194 332° Northwest 226 260 8,100 -1,260 Descending Denver Center